FSIA/SEZ METAR and TAF weather

Enter ICAO airport designator
Station Type Date Time Source
FSIA METAR 2019/04/18 21:00 UTC NOAA

FSIA 182100Z VRB02KT 9999 FEW023CB 27/25 Q1010 NOSIG


Station Type Date Time Source
FSIA Decoded METAR 2019/04/18 21:00 UTC NOAA

Seychelles Inter-National Airport, Seychelles (FSIA) 04-40S 055-31E 3M
Apr 18, 2019 - 05:00 PM EDT / 2019.04.18 2100 UTC
Wind: Variable at 2 MPH (2 KT):0
Visibility: greater than 7 mile(s):0
Sky conditions: mostly clear
Weather: Cumulonimbus clouds observed
Temperature: 80 F (27 C)
Dew Point: 77 F (25 C)
Relative Humidity: 88%
Pressure (altimeter): 29.83 in. Hg (1010 hPa)
ob: FSIA 182100Z VRB02KT 9999 FEW023CB 27/25 Q1010 NOSIG
cycle: 21

Station Type Date Time Source
FSIA TAF 2019/04/18 18:21 UTC NOAA

TAF FSIA 181706Z 1818/1918 20005KT 9999 SCT026 PROB40
TEMPO 1818/1824 8000 -SHRA/SHRA BKN020
TEMPO 1906/1912 5000 TSRA FEW010 FEW016CB BKN021
BECMG 1908/1910 35010G25KT

Example: see airport list